Time;durP1;ratioP1;P1;durP2;ratioP2;P2;SDS_P1;SDS_P2;PMS_P1;PMS_P2;Temp;Humidity;BMP_temperature;BMP_pressure;BME280_temperature;BME280_humidity;BME280_pressure;Samples;Min_cycle;Max_cycle;Signal;HPM_P1;HPM_P2
2022/03/15 00:00:48;;;;;;;;;;;;;;;16.35;58.17;100390.72;2098789;28;19924;-55
2022/03/15 00:01:50;;;;;;;;;;;;;;;16.35;58.08;100396.09;2098940;28;20015;-57
2022/03/15 00:02:52;;;;;;;;;;;;;;;16.34;58.14;100397.91;2097350;28;20332;-56
2022/03/15 00:03:53;;;;;;;;;;;;;;;16.33;58.17;100393.56;2097370;28;19979;-54
2022/03/15 00:04:55;;;;;;;;;;;;;;;16.34;58.18;100392.56;2097467;28;19934;-56
2022/03/15 00:05:58;;;;;;;;;;;;;;;16.33;58.12;100400.75;2098281;28;20113;-55
2022/03/15 00:06:59;;;;;;;;;;;;;;;16.33;58.21;100400.75;2095151;28;19932;-55
2022/03/15 00:08:00;;;;;;;;;;;;;;;16.34;58.14;100397.91;2095593;28;19979;-55
2022/03/15 00:09:01;;;;;;;;;;;;;;;16.33;58.17;100403.44;2098947;28;20182;-55
2022/03/15 00:10:03;;;;;;;;;;;;;;;16.31;58.09;100401.72;2099110;28;20336;-54
2022/03/15 00:11:05;;;;;;;;;;;;;;;16.31;58.08;100401.72;2097760;28;19946;-56
2022/03/15 00:12:08;;;;;;;;;;;;;;;16.31;58.07;100407.09;2098410;28;19928;-55
2022/03/15 00:13:09;;;;;;;;;;;;;;;16.31;58.30;100403.56;2099850;28;20136;-55
2022/03/15 00:14:14;;;;;;;;;;;;;;;16.33;58.07;100414.16;2096083;28;19924;-53
2022/03/15 00:15:15;;;;;;;;;;;;;;;16.32;58.26;100413.28;2091855;28;19959;-53
2022/03/15 00:16:16;;;;;;;;;;;;;;;16.30;58.14;100412.59;2098936;28;19924;-53
2022/03/15 00:17:17;;;;;;;;;;;;;;;16.29;58.20;100408.22;2098484;28;19924;-51
2022/03/15 00:18:21;;;;;;;;;;;;;;;16.30;58.12;100409.94;2097953;28;23007;-54
2022/03/15 00:19:21;;;;;;;;;;;;;;;16.30;58.13;100413.44;2097846;28;19928;-55
2022/03/15 00:20:23;;;;;;;;;;;;;;;16.29;58.29;100416.25;2097791;28;20072;-52
2022/03/15 00:21:25;;;;;;;;;;;;;;;16.29;58.14;100414.41;2097010;28;20062;-52
2022/03/15 00:22:25;;;;;;;;;;;;;;;16.29;58.20;100414.41;2098138;28;19969;-51
2022/03/15 00:23:27;;;;;;;;;;;;;;;16.29;58.23;100413.56;2099376;28;19924;-55
2022/03/15 00:24:28;;;;;;;;;;;;;;;16.29;58.12;100417.09;2091521;28;19928;-54
2022/03/15 00:25:30;;;;;;;;;;;;;;;16.29;58.10;100414.41;2098793;28;20285;-55
2022/03/15 00:26:30;;;;;;;;;;;;;;;16.29;58.05;100417.09;2100042;28;19935;-53
2022/03/15 00:27:32;;;;;;;;;;;;;;;16.29;58.15;100413.56;2097445;28;20142;-55
2022/03/15 00:28:33;;;;;;;;;;;;;;;16.28;58.21;100415.41;2099139;28;19928;-60
2022/03/15 00:29:35;;;;;;;;;;;;;;;16.28;58.15;100414.56;2097187;28;19939;-55
2022/03/15 00:30:36;;;;;;;;;;;;;;;16.28;58.09;100420.78;2097013;28;19924;-55
2022/03/15 00:31:39;;;;;;;;;;;;;;;16.27;58.19;100423.59;2099751;28;19971;-56
2022/03/15 00:32:40;;;;;;;;;;;;;;;16.28;58.24;100423.44;2097407;28;19932;-55
2022/03/15 00:33:43;;;;;;;;;;;;;;;16.27;58.23;100415.56;2095895;28;19924;-52
2022/03/15 00:34:43;;;;;;;;;;;;;;;16.26;58.17;100417.38;2098809;28;20421;-53
2022/03/15 00:35:46;;;;;;;;;;;;;;;16.25;58.21;100426.41;2098941;28;19924;-53
2022/03/15 00:36:48;;;;;;;;;;;;;;;16.26;58.23;100427.25;2096819;28;20871;-55
2022/03/15 00:37:51;;;;;;;;;;;;;;;16.25;58.15;100422.91;2098260;28;19928;-56
2022/03/15 00:38:52;;;;;;;;;;;;;;;16.25;58.21;100429.09;2098704;28;20520;-58
2022/03/15 00:39:53;;;;;;;;;;;;;;;16.25;58.23;100433.63;2097069;28;20390;-54
2022/03/15 00:40:54;;;;;;;;;;;;;;;16.25;58.19;100428.25;2099291;28;19925;-54
2022/03/15 00:41:56;;;;;;;;;;;;;;;16.25;58.20;100422.91;2100034;28;19932;-54
2022/03/15 00:42:57;;;;;;;;;;;;;;;16.23;58.28;100423.03;2091642;28;19924;-56
2022/03/15 00:43:58;;;;;;;;;;;;;;;16.23;58.23;100428.38;2099618;28;20398;-55
2022/03/15 00:45:02;;;;;;;;;;;;;;;16.24;58.23;100426.56;2099416;28;20026;-54
2022/03/15 00:46:04;;;;;;;;;;;;;;;16.23;58.18;100425.72;2098624;28;20151;-55
2022/03/15 00:47:05;;;;;;;;;;;;;;;16.22;58.24;100424.03;2098782;28;20959;-57
2022/03/15 00:48:07;;;;;;;;;;;;;;;16.22;58.29;100421.34;2097398;28;20396;-55
2022/03/15 00:49:09;;;;;;;;;;;;;;;16.22;58.10;100421.34;2097591;28;19932;-55
2022/03/15 00:50:11;;;;;;;;;;;;;;;16.22;58.26;100424.03;2098786;28;19931;-52
2022/03/15 00:51:12;;;;;;;;;;;;;;;16.22;58.27;100433.91;2091291;28;19931;-53
2022/03/15 00:52:13;;;;;;;;;;;;;;;16.22;58.28;100433.91;2097782;28;20151;-54
2022/03/15 00:53:15;;;;;;;;;;;;;;;16.21;58.26;100426.84;2092762;28;20386;-56
2022/03/15 00:54:15;;;;;;;;;;;;;;;16.21;58.30;100430.34;2097905;28;19924;-55
2022/03/15 00:55:17;;;;;;;;;;;;;;;16.22;58.19;100433.91;2100108;28;20018;-54
2022/03/15 00:56:19;;;;;;;;;;;;;;;16.20;58.20;100426.00;2098709;28;19939;-52
2022/03/15 00:57:20;;;;;;;;;;;;;;;16.19;58.17;100421.66;2097799;28;20477;-55
2022/03/15 00:58:22;;;;;;;;;;;;;;;16.19;58.25;100435.03;2097857;28;19932;-56
2022/03/15 00:59:22;;;;;;;;;;;;;;;16.19;58.22;100427.00;2100143;28;20182;-49
2022/03/15 01:00:27;;;;;;;;;;;;;;;16.18;58.35;100427.97;2097918;28;20239;-55
2022/03/15 01:01:29;;;;;;;;;;;;;;;16.19;58.27;100429.69;2090284;28;19982;-55
2022/03/15 01:02:30;;;;;;;;;;;;;;;16.18;58.29;100425.28;2094205;28;19928;-58
2022/03/15 01:03:31;;;;;;;;;;;;;;;16.17;58.35;100430.81;2097618;28;19924;-55
2022/03/15 01:04:34;;;;;;;;;;;;;;;16.17;58.41;100431.66;2098040;28;19928;-54
2022/03/15 01:05:36;;;;;;;;;;;;;;;16.17;58.51;100420.94;2095518;28;20409;-55
2022/03/15 01:06:37;;;;;;;;;;;;;;;16.17;58.17;100420.94;2097076;28;19951;-55
2022/03/15 01:07:39;;;;;;;;;;;;;;;16.16;58.21;100421.06;2097814;28;20334;-54
2022/03/15 01:08:39;;;;;;;;;;;;;;;16.15;58.36;100412.19;2097977;28;19927;-54
2022/03/15 01:09:41;;;;;;;;;;;;;;;16.16;58.33;100413.91;2097088;28;20469;-53
2022/03/15 01:10:41;;;;;;;;;;;;;;;16.15;58.33;100412.19;2094898;28;19935;-56
2022/03/15 01:11:43;;;;;;;;;;;;;;;16.15;58.37;100406.84;2093275;28;20177;-53
2022/03/15 01:12:43;;;;;;;;;;;;;;;16.15;58.31;100414.03;2098403;28;19932;-54
2022/03/15 01:13:45;;;;;;;;;;;;;;;16.15;58.39;100412.19;2097781;28;19924;-52
2022/03/15 01:14:46;;;;;;;;;;;;;;;16.14;58.36;100410.53;2096582;28;20015;-50
2022/03/15 01:15:49;;;;;;;;;;;;;;;16.14;58.42;100410.53;2097499;28;19979;-57
2022/03/15 01:16:50;;;;;;;;;;;;;;;16.14;58.43;100404.34;2098317;28;19924;-54
2022/03/15 01:17:52;;;;;;;;;;;;;;;16.13;58.29;100408.84;2097521;28;19932;-54
2022/03/15 01:18:52;;;;;;;;;;;;;;;16.13;58.31;100411.53;2096911;28;19924;-51
2022/03/15 01:19:55;;;;;;;;;;;;;;;16.12;58.38;100407.13;2096122;28;19950;-55
2022/03/15 01:20:56;;;;;;;;;;;;;;;16.11;58.38;100405.47;2088444;28;19932;-52
2022/03/15 01:21:58;;;;;;;;;;;;;;;16.12;58.48;100401.78;2096898;28;20477;-51
2022/03/15 01:22:58;;;;;;;;;;;;;;;16.11;58.49;100400.09;2098358;28;19928;-54
2022/03/15 01:24:00;;;;;;;;;;;;;;;16.11;58.38;100404.63;2096977;28;20039;-54
2022/03/15 01:25:00;;;;;;;;;;;;;;;16.11;58.30;100409.97;2097853;28;19928;-55
2022/03/15 01:26:03;;;;;;;;;;;;;;;16.10;58.42;100403.75;2097323;28;19928;-53
2022/03/15 01:27:03;;;;;;;;;;;;;;;16.11;58.43;100409.97;2095721;28;20460;-55
2022/03/15 01:28:05;;;;;;;;;;;;;;;16.10;58.49;100419.81;2097516;28;19940;-52
2022/03/15 01:29:06;;;;;;;;;;;;;;;16.09;58.49;100407.44;2098734;28;20157;-54
2022/03/15 01:30:08;;;;;;;;;;;;;;;16.09;58.50;100404.75;2090266;28;20159;-54
2022/03/15 01:31:08;;;;;;;;;;;;;;;16.09;58.52;100402.91;2096055;28;20414;-56
2022/03/15 01:32:10;;;;;;;;;;;;;;;16.09;58.41;100402.06;2098695;28;19924;-54
2022/03/15 01:33:10;;;;;;;;;;;;;;;16.08;58.60;100400.41;2098491;28;19979;-53
2022/03/15 01:34:12;;;;;;;;;;;;;;;16.08;58.42;100400.41;2097317;28;19928;-55
2022/03/15 01:35:14;;;;;;;;;;;;;;;16.07;58.46;100396.88;2096305;28;19932;-54
2022/03/15 01:36:15;;;;;;;;;;;;;;;16.07;58.43;100398.69;2097784;28;20379;-54
2022/03/15 01:37:16;;;;;;;;;;;;;;;16.08;58.51;100405.75;2097785;28;20056;-52
2022/03/15 01:38:17;;;;;;;;;;;;;;;16.06;58.54;100400.53;2098664;28;20009;-53
2022/03/15 01:39:18;;;;;;;;;;;;;;;16.07;58.70;100398.69;2090462;28;19944;-53
2022/03/15 01:40:21;;;;;;;;;;;;;;;16.06;58.45;100397.00;2095985;28;19980;-49
2022/03/15 01:41:21;;;;;;;;;;;;;;;16.06;58.63;100399.69;2097775;28;20298;-53
2022/03/15 01:42:23;;;;;;;;;;;;;;;16.05;58.62;100390.81;2099401;28;19925;-55
2022/03/15 01:43:23;;;;;;;;;;;;;;;16.05;58.64;100395.34;2095920;28;20159;-52
2022/03/15 01:44:26;;;;;;;;;;;;;;;16.05;58.59;100390.81;2097747;28;19932;-55
2022/03/15 01:45:30;;;;;;;;;;;;;;;16.04;58.48;100389.13;2097899;28;19928;-54
2022/03/15 01:46:32;;;;;;;;;;;;;;;16.04;58.69;100391.78;2096966;28;19940;-50
2022/03/15 01:47:33;;;;;;;;;;;;;;;16.04;58.60;100391.78;2098836;28;20697;-55
2022/03/15 01:48:35;;;;;;;;;;;;;;;16.03;58.52;100391.94;2094739;28;20197;-52
2022/03/15 01:49:35;;;;;;;;;;;;;;;16.03;58.56;100389.28;2094596;28;20283;-55
2022/03/15 01:50:38;;;;;;;;;;;;;;;16.02;58.54;100385.75;2097787;28;20005;-52
2022/03/15 01:51:40;;;;;;;;;;;;;;;16.03;58.56;100394.63;2098423;28;19936;-54
2022/03/15 01:52:43;;;;;;;;;;;;;;;16.02;58.52;100390.28;2097082;28;19952;-54
2022/03/15 01:53:44;;;;;;;;;;;;;;;16.02;58.61;100384.91;2096486;28;20484;-50
2022/03/15 01:54:46;;;;;;;;;;;;;;;16.01;58.52;100381.38;2089827;28;19924;-52
2022/03/15 01:55:46;;;;;;;;;;;;;;;16.00;58.46;100382.38;2096725;28;19953;-54
2022/03/15 01:56:48;;;;;;;;;;;;;;;16.01;58.68;100384.06;2096970;28;20371;-54
2022/03/15 01:57:49;;;;;;;;;;;;;;;16.00;58.54;100384.22;2095245;28;20406;-54
2022/03/15 01:58:51;;;;;;;;;;;;;;;15.99;58.56;100385.19;2098693;28;20003;-50
2022/03/15 01:59:52;;;;;;;;;;;;;;;16.00;58.57;100381.53;2097486;28;20410;-53
2022/03/15 02:00:53;;;;;;;;;;;;;;;15.99;58.58;100390.53;2094089;28;19990;-53
2022/03/15 02:01:54;;;;;;;;;;;;;;;15.99;58.39;100380.69;2094154;28;19928;-53
2022/03/15 02:02:56;;;;;;;;;;;;;;;16.03;58.32;100383.91;2097699;28;20111;-54
2022/03/15 02:03:56;;;;;;;;;;;;;;;16.02;58.27;100384.91;2098927;28;19935;-55
2022/03/15 02:04:58;;;;;;;;;;;;;;;16.01;58.33;100378.69;2097196;28;20572;-55
2022/03/15 02:06:01;;;;;;;;;;;;;;;16.04;58.31;100377.56;2098136;28;19982;-53
2022/03/15 02:07:04;;;;;;;;;;;;;;;16.03;58.22;100373.22;2100385;28;20056;-51
2022/03/15 02:08:10;;;;;;;;;;;;;;;16.04;58.33;100382.94;2096837;28;19924;-54
2022/03/15 02:09:12;;;;;;;;;;;;;;;16.04;58.29;100380.25;2099387;28;20066;-53
2022/03/15 02:10:12;;;;;;;;;;;;;;;16.05;58.33;100384.63;2092493;28;19928;-53
2022/03/15 02:11:14;;;;;;;;;;;;;;;16.05;58.31;100384.63;2097649;28;20035;-52
2022/03/15 02:12:15;;;;;;;;;;;;;;;16.05;58.35;100376.59;2098215;28;19969;-55
2022/03/15 02:13:16;;;;;;;;;;;;;;;16.06;58.23;100380.97;2099465;28;20188;-55
2022/03/15 02:14:17;;;;;;;;;;;;;;;16.06;58.30;100375.59;2097933;28;20059;-52
2022/03/15 02:15:18;;;;;;;;;;;;;;;16.06;58.24;100375.59;2097379;28;19964;-52
2022/03/15 02:16:19;;;;;;;;;;;;;;;16.06;58.32;100370.25;2100440;28;20527;-50
2022/03/15 02:17:20;;;;;;;;;;;;;;;16.07;58.20;100372.78;2099429;28;19939;-53
2022/03/15 02:18:23;;;;;;;;;;;;;;;16.06;58.36;100367.56;2099754;28;20225;-56
2022/03/15 02:19:27;;;;;;;;;;;;;;;16.06;58.26;100378.28;2092037;28;23209;-54
2022/03/15 02:20:29;;;;;;;;;;;;;;;16.07;58.22;100377.28;2099495;28;19924;-54
2022/03/15 02:21:31;;;;;;;;;;;;;;;16.08;58.16;100378.97;2098677;28;20090;-53
2022/03/15 02:22:31;;;;;;;;;;;;;;;16.07;58.18;100375.47;2096137;28;20352;-53
2022/03/15 02:23:33;;;;;;;;;;;;;;;16.07;58.19;100382.63;2098507;28;20019;-55
2022/03/15 02:24:38;;;;;;;;;;;;;;;16.08;58.24;100381.66;2098556;28;20061;-51
2022/03/15 02:25:38;;;;;;;;;;;;;;;16.07;58.27;100377.28;2096440;28;20081;-53
2022/03/15 02:26:40;;;;;;;;;;;;;;;16.08;58.27;100384.34;2095706;28;20458;-54
2022/03/15 02:27:41;;;;;;;;;;;;;;;16.07;58.26;100383.50;2097280;28;19931;-54
2022/03/15 02:28:43;;;;;;;;;;;;;;;16.07;58.29;100383.50;2099774;28;20390;-54
2022/03/15 02:29:43;;;;;;;;;;;;;;;16.08;58.27;100384.34;2098490;28;19943;-54
2022/03/15 02:30:45;;;;;;;;;;;;;;;16.07;58.20;100387.97;2096718;28;20336;-51
2022/03/15 02:31:45;;;;;;;;;;;;;;;16.07;58.24;100379.94;2096697;28;19963;-55
2022/03/15 02:32:48;;;;;;;;;;;;;;;16.07;58.22;100382.63;2098463;28;19934;-54
2022/03/15 02:33:49;;;;;;;;;;;;;;;16.07;58.13;100378.16;2089075;28;20015;-52
2022/03/15 02:34:50;;;;;;;;;;;;;;;16.07;58.16;100380.81;2090848;28;19929;-54
2022/03/15 02:35:53;;;;;;;;;;;;;;;16.07;58.19;100385.31;2096842;28;19928;-53
2022/03/15 02:36:54;;;;;;;;;;;;;;;16.07;58.25;100377.28;2094939;28;20425;-53
2022/03/15 02:37:55;;;;;;;;;;;;;;;16.07;58.16;100379.94;2097075;28;19936;-52
2022/03/15 02:38:56;;;;;;;;;;;;;;;16.08;58.34;100373.63;2098814;28;20478;-54
2022/03/15 02:39:57;;;;;;;;;;;;;;;16.07;58.20;100377.28;2097715;28;19940;-57
2022/03/15 02:40:58;;;;;;;;;;;;;;;16.07;58.19;100374.59;2097885;28;19944;-54
2022/03/15 02:42:00;;;;;;;;;;;;;;;16.08;58.17;100376.31;2097601;28;20002;-51
2022/03/15 02:43:00;;;;;;;;;;;;;;;16.06;58.18;100375.59;2098439;28;19935;-54
2022/03/15 02:44:02;;;;;;;;;;;;;;;16.07;58.20;100382.63;2092456;28;19939;-55
2022/03/15 02:45:02;;;;;;;;;;;;;;;16.06;58.30;100373.75;2097861;28;19970;-52
2022/03/15 02:46:04;;;;;;;;;;;;;;;16.06;58.14;100380.97;2099242;28;20472;-53
2022/03/15 02:47:05;;;;;;;;;;;;;;;16.06;58.20;100383.63;2100164;28;19928;-56
2022/03/15 02:48:06;;;;;;;;;;;;;;;16.07;58.16;100377.28;2097476;28;19930;-54
2022/03/15 02:49:07;;;;;;;;;;;;;;;16.06;58.25;100379.13;2097973;28;19966;-55
2022/03/15 02:50:08;;;;;;;;;;;;;;;16.05;58.23;100374.75;2098860;28;20094;-55
2022/03/15 02:51:11;;;;;;;;;;;;;;;16.06;58.14;100367.56;2098045;28;19924;-54
2022/03/15 02:52:13;;;;;;;;;;;;;;;16.07;58.12;100371.94;2092443;28;20501;-54
2022/03/15 02:53:14;;;;;;;;;;;;;;;16.06;58.20;100372.94;2098541;28;19939;-53
2022/03/15 02:54:16;;;;;;;;;;;;;;;16.05;58.06;100379.28;2099081;28;20034;-53
2022/03/15 02:55:18;;;;;;;;;;;;;;;16.05;58.09;100373.94;2096159;28;19927;-54
2022/03/15 02:56:19;;;;;;;;;;;;;;;16.06;58.17;100372.94;2095820;28;20342;-52
2022/03/15 02:57:21;;;;;;;;;;;;;;;16.06;58.11;100370.25;2096629;28;19955;-51
2022/03/15 02:58:23;;;;;;;;;;;;;;;16.05;58.20;100372.09;2096727;28;20226;-55
2022/03/15 02:59:23;;;;;;;;;;;;;;;16.05;58.17;100373.94;2099956;28;19928;-57
2022/03/15 03:00:27;;;;;;;;;;;;;;;16.05;58.13;100369.41;2099799;28;19928;-53
2022/03/15 03:01:27;;;;;;;;;;;;;;;16.05;58.03;100368.56;2098893;28;19924;-54
2022/03/15 03:02:29;;;;;;;;;;;;;;;16.05;58.22;100369.41;2097814;28;20355;-54
2022/03/15 03:03:29;;;;;;;;;;;;;;;16.04;58.25;100361.50;2099850;28;19988;-54
2022/03/15 03:04:31;;;;;;;;;;;;;;;16.05;58.26;100363.22;2097597;28;20144;-52
2022/03/15 03:05:31;;;;;;;;;;;;;;;16.04;58.07;100359.69;2096342;28;19945;-56
2022/03/15 03:06:35;;;;;;;;;;;;;;;16.05;58.20;100364.06;2096395;28;20399;-52
2022/03/15 03:07:36;;;;;;;;;;;;;;;16.04;58.16;100357.00;2100822;28;19947;-56
2022/03/15 03:08:37;;;;;;;;;;;;;;;16.04;58.23;100358.84;2100136;28;19977;-50
2022/03/15 03:09:38;;;;;;;;;;;;;;;16.03;58.15;100355.31;2099043;28;20410;-53
2022/03/15 03:10:39;;;;;;;;;;;;;;;16.03;58.19;100366.03;2098688;28;20504;-53
2022/03/15 03:11:40;;;;;;;;;;;;;;;16.04;58.10;100361.50;2100076;28;20002;-50
2022/03/15 03:12:41;;;;;;;;;;;;;;;16.04;58.15;100366.88;2099592;28;19924;-54
2022/03/15 03:13:44;;;;;;;;;;;;;;;16.02;58.23;100358.16;2101471;28;19939;-54
2022/03/15 03:14:47;;;;;;;;;;;;;;;16.03;58.17;100359.84;2098037;28;19940;-53
2022/03/15 03:15:48;;;;;;;;;;;;;;;16.04;58.16;100361.50;2096432;28;20144;-54
2022/03/15 03:16:50;;;;;;;;;;;;;;;16.02;58.23;100360.84;2100762;28;20046;-54
2022/03/15 03:17:52;;;;;;;;;;;;;;;16.03;58.20;100365.19;2099683;28;19928;-54
2022/03/15 03:18:53;;;;;;;;;;;;;;;16.01;58.22;100357.28;2101266;28;20042;-54
2022/03/15 03:19:54;;;;;;;;;;;;;;;16.01;58.15;100359.97;2102488;28;20288;-54
2022/03/15 03:20:55;;;;;;;;;;;;;;;16.02;58.22;100366.19;2100126;28;20004;-50
2022/03/15 03:21:59;;;;;;;;;;;;;;;16.01;58.23;100356.44;2098249;28;19924;-54
2022/03/15 03:22:59;;;;;;;;;;;;;;;16.02;58.19;100363.50;2092646;28;19981;-55
2022/03/15 03:24:04;;;;;;;;;;;;;;;16.00;58.18;100360.97;2097944;28;19928;-53
2022/03/15 03:25:05;;;;;;;;;;;;;;;16.00;58.14;100352.09;2098845;28;20429;-53
2022/03/15 03:26:08;;;;;;;;;;;;;;;16.00;58.19;100350.25;2097265;28;20459;-52
2022/03/15 03:27:13;;;;;;;;;;;;;;;16.01;58.19;100361.81;2099301;28;19931;-52
2022/03/15 03:28:15;;;;;;;;;;;;;;;16.00;58.17;100363.63;2099465;28;19923;-54
2022/03/15 03:29:16;;;;;;;;;;;;;;;16.00;58.23;100360.13;2096784;28;19928;-55
2022/03/15 03:30:18;;;;;;;;;;;;;;;15.99;58.12;100353.06;2094977;28;20228;-51
2022/03/15 03:31:18;;;;;;;;;;;;;;;15.99;58.19;100351.25;2092378;28;20276;-53
2022/03/15 03:32:20;;;;;;;;;;;;;;;15.98;58.27;100346.88;2097039;28;19936;-53
2022/03/15 03:33:22;;;;;;;;;;;;;;;15.99;58.17;100348.59;2098817;28;20014;-53
2022/03/15 03:34:23;;;;;;;;;;;;;;;15.98;58.23;100354.06;2099193;28;19977;-51
2022/03/15 03:35:25;;;;;;;;;;;;;;;15.98;57.98;100351.38;2098048;28;19953;-55
2022/03/15 03:36:26;;;;;;;;;;;;;;;15.98;58.19;100346.03;2098059;28;19932;-53
2022/03/15 03:37:28;;;;;;;;;;;;;;;15.98;58.35;100346.03;2098579;28;20118;-53
2022/03/15 03:38:30;;;;;;;;;;;;;;;15.97;58.22;100344.38;2095825;28;20349;-56
2022/03/15 03:39:31;;;;;;;;;;;;;;;15.97;58.14;100349.72;2091796;28;19924;-52
2022/03/15 03:40:32;;;;;;;;;;;;;;;15.96;58.16;100348.84;2098333;28;19939;-54
2022/03/15 03:41:33;;;;;;;;;;;;;;;15.96;58.25;100358.72;2099704;28;19984;-55
2022/03/15 03:42:35;;;;;;;;;;;;;;;15.96;58.24;100359.56;2097076;28;19928;-52
2022/03/15 03:43:36;;;;;;;;;;;;;;;15.96;58.24;100358.72;2098340;28;20297;-56
2022/03/15 03:44:38;;;;;;;;;;;;;;;15.96;58.26;100356.03;2099657;28;20227;-55
2022/03/15 03:45:39;;;;;;;;;;;;;;;15.95;58.26;100351.69;2097594;28;20208;-52
2022/03/15 03:46:40;;;;;;;;;;;;;;;15.95;58.22;100351.69;2099552;28;19974;-55
2022/03/15 03:47:41;;;;;;;;;;;;;;;15.95;58.23;100349.84;2092773;28;20828;-55
2022/03/15 03:48:43;;;;;;;;;;;;;;;15.95;58.24;100349.00;2098510;28;20005;-55
2022/03/15 03:49:43;;;;;;;;;;;;;;;15.94;58.19;100350.00;2099980;28;19924;-53
2022/03/15 03:50:45;;;;;;;;;;;;;;;15.93;58.34;100346.47;2098874;28;20302;-52
2022/03/15 03:51:46;;;;;;;;;;;;;;;15.94;58.17;100344.66;2099435;28;20115;-53
2022/03/15 03:52:48;;;;;;;;;;;;;;;15.94;58.27;100340.13;2098448;28;19924;-53
2022/03/15 03:53:49;;;;;;;;;;;;;;;15.94;58.25;100341.97;2097475;28;20335;-56
2022/03/15 03:54:51;;;;;;;;;;;;;;;15.92;58.25;100342.09;2090059;28;19939;-54
2022/03/15 03:55:51;;;;;;;;;;;;;;;15.93;58.18;100340.28;2099804;28;20033;-52
2022/03/15 03:56:53;;;;;;;;;;;;;;;15.92;58.18;100343.94;2099076;28;19977;-54
2022/03/15 03:57:54;;;;;;;;;;;;;;;15.92;58.33;100336.75;2098312;28;20049;-52
2022/03/15 03:58:55;;;;;;;;;;;;;;;15.92;58.28;100342.09;2099657;28;19928;-53
2022/03/15 03:59:56;;;;;;;;;;;;;;;15.92;58.21;100346.63;2097932;28;19928;-56
2022/03/15 04:00:57;;;;;;;;;;;;;;;15.90;58.26;100343.25;2096216;28;20279;-55
2022/03/15 04:01:58;;;;;;;;;;;;;;;15.89;58.21;100342.41;2095617;28;20413;-52
2022/03/15 04:03:00;;;;;;;;;;;;;;;15.90;58.37;100344.06;2090485;28;20262;-53
2022/03/15 04:04:05;;;;;;;;;;;;;;;15.89;58.41;100347.75;2095238;28;19928;-54
2022/03/15 04:05:07;;;;;;;;;;;;;;;15.89;58.30;100341.56;2098519;28;20055;-53
2022/03/15 04:06:11;;;;;;;;;;;;;;;15.90;58.37;100346.75;2099277;28;19932;-54
2022/03/15 04:07:12;;;;;;;;;;;;;;;15.90;58.22;100340.56;2097358;28;19967;-54
2022/03/15 04:08:16;;;;;;;;;;;;;;;15.89;58.31;100357.63;2098166;28;19932;-53
2022/03/15 04:09:17;;;;;;;;;;;;;;;15.88;58.31;100351.44;2096614;28;19932;-52
2022/03/15 04:10:21;;;;;;;;;;;;;;;15.88;58.31;100348.75;2096271;28;19932;-52
2022/03/15 04:11:22;;;;;;;;;;;;;;;15.86;58.46;100343.53;2094859;28;20369;-54
2022/03/15 04:12:24;;;;;;;;;;;;;;;15.85;58.44;100341.84;2100361;28;20171;-54
2022/03/15 04:13:26;;;;;;;;;;;;;;;15.88;58.36;100339.84;2100526;28;19935;-52
2022/03/15 04:14:28;;;;;;;;;;;;;;;15.85;58.25;100343.66;2098563;28;20437;-57
2022/03/15 04:15:31;;;;;;;;;;;;;;;15.86;58.44;100338.19;2097714;28;20185;-54
2022/03/15 04:16:33;;;;;;;;;;;;;;;15.85;58.42;100344.53;2098258;28;19932;-51
2022/03/15 04:17:34;;;;;;;;;;;;;;;15.85;58.39;100346.34;2096391;28;19932;-54
2022/03/15 04:18:35;;;;;;;;;;;;;;;15.84;58.32;100342.81;2098465;28;20338;-57
2022/03/15 04:19:36;;;;;;;;;;;;;;;15.84;58.49;100342.81;2099525;28;19932;-55
2022/03/15 04:20:37;;;;;;;;;;;;;;;15.84;58.41;100345.50;2091496;28;20381;-54
2022/03/15 04:21:38;;;;;;;;;;;;;;;15.84;58.38;100350.84;2099698;28;19951;-53
2022/03/15 04:22:39;;;;;;;;;;;;;;;15.83;58.45;100349.16;2100474;28;20382;-54
2022/03/15 04:23:42;;;;;;;;;;;;;;;15.81;58.44;100345.78;2098478;28;19980;-56
2022/03/15 04:24:43;;;;;;;;;;;;;;;15.81;58.43;100345.78;2099919;28;19934;-52
2022/03/15 04:25:44;;;;;;;;;;;;;;;15.81;58.39;100347.63;2098977;28;19928;-55
2022/03/15 04:26:47;;;;;;;;;;;;;;;15.80;58.36;100349.47;2097442;28;19935;-56
2022/03/15 04:27:48;;;;;;;;;;;;;;;15.80;58.46;100346.78;2098942;28;19935;-62
2022/03/15 04:28:49;;;;;;;;;;;;;;;15.80;58.55;100346.78;2099780;28;20442;-57
2022/03/15 04:29:51;;;;;;;;;;;;;;;15.80;58.39;100352.13;2091516;28;19928;-55
2022/03/15 04:30:52;;;;;;;;;;;;;;;15.79;58.38;100347.75;2097683;28;20214;-53
2022/03/15 04:31:54;;;;;;;;;;;;;;;15.81;58.43;100356.50;2099285;28;19928;-51
2022/03/15 04:32:54;;;;;;;;;;;;;;;15.79;58.56;100350.44;2097541;28;19968;-55
2022/03/15 04:33:56;;;;;;;;;;;;;;;15.80;58.41;100349.47;2099159;28;19928;-53
2022/03/15 04:34:56;;;;;;;;;;;;;;;15.78;58.43;100356.78;2095938;28;19928;-54
2022/03/15 04:35:58;;;;;;;;;;;;;;;15.78;58.50;100356.78;2094857;28;20382;-53
2022/03/15 04:36:59;;;;;;;;;;;;;;;15.78;58.59;100356.78;2098587;28;19931;-55
2022/03/15 04:38:00;;;;;;;;;;;;;;;15.78;58.62;100361.28;2092429;28;20026;-54
2022/03/15 04:39:03;;;;;;;;;;;;;;;15.78;58.50;100367.47;2096225;28;20394;-56
2022/03/15 04:40:07;;;;;;;;;;;;;;;15.78;58.68;100369.31;2099293;28;19951;-54
2022/03/15 04:41:07;;;;;;;;;;;;;;;15.77;58.42;100371.16;2099149;28;19924;-53
2022/03/15 04:42:09;;;;;;;;;;;;;;;15.77;58.44;100370.31;2096811;28;20347;-54
2022/03/15 04:43:09;;;;;;;;;;;;;;;15.77;58.52;100368.47;2097028;28;19928;-56
2022/03/15 04:44:11;;;;;;;;;;;;;;;15.76;58.52;100364.09;2100098;28;20378;-54
2022/03/15 04:45:12;;;;;;;;;;;;;;;15.75;58.67;100373.13;2098008;28;19924;-58
2022/03/15 04:46:13;;;;;;;;;;;;;;;15.75;58.53;100373.13;2095338;28;20357;-54
2022/03/15 04:47:14;;;;;;;;;;;;;;;15.75;58.56;100382.97;2097047;28;20314;-52
2022/03/15 04:48:15;;;;;;;;;;;;;;;15.75;58.51;100378.47;2099667;28;20110;-51
2022/03/15 04:49:16;;;;;;;;;;;;;;;15.74;58.48;100375.94;2099160;28;19959;-53
2022/03/15 04:50:18;;;;;;;;;;;;;;;15.73;58.53;100380.44;2096923;28;20267;-54
2022/03/15 04:51:18;;;;;;;;;;;;;;;15.74;58.45;100379.47;2097342;28;20296;-57
2022/03/15 04:52:20;;;;;;;;;;;;;;;15.73;58.55;100380.44;2099348;28;19935;-57
2022/03/15 04:53:21;;;;;;;;;;;;;;;15.73;58.51;100385.78;2096372;28;19924;-51
2022/03/15 04:54:24;;;;;;;;;;;;;;;15.73;58.73;100384.94;2098914;28;20622;-53
2022/03/15 04:55:24;;;;;;;;;;;;;;;15.73;58.61;100382.28;2094470;28;20062;-57
2022/03/15 04:56:26;;;;;;;;;;;;;;;15.71;58.58;100382.44;2095425;28;19928;-54
2022/03/15 04:57:26;;;;;;;;;;;;;;;15.72;58.74;100386.78;2100056;28;19928;-55
2022/03/15 04:58:28;;;;;;;;;;;;;;;15.71;58.55;100377.09;2098739;28;19958;-56
2022/03/15 04:59:28;;;;;;;;;;;;;;;15.71;58.64;100381.56;2097916;28;19928;-56
2022/03/15 05:00:30;;;;;;;;;;;;;;;15.70;58.52;100380.72;2096903;28;19959;-54
2022/03/15 05:01:31;;;;;;;;;;;;;;;15.71;58.63;100381.56;2099663;28;20390;-53
2022/03/15 05:02:35;;;;;;;;;;;;;;;15.71;58.63;100386.91;2097650;28;19928;-56
2022/03/15 05:03:35;;;;;;;;;;;;;;;15.70;58.79;100387.91;2091566;28;19982;-52
2022/03/15 05:04:37;;;;;;;;;;;;;;;15.69;58.66;100381.72;2090377;28;20386;-54
2022/03/15 05:05:38;;;;;;;;;;;;;;;15.69;58.53;100384.41;2095675;28;20295;-55
2022/03/15 05:06:39;;;;;;;;;;;;;;;15.68;58.57;100377.34;2099670;28;19924;-53
2022/03/15 05:07:40;;;;;;;;;;;;;;;15.69;58.57;100384.41;2099128;28;19952;-50
2022/03/15 05:08:41;;;;;;;;;;;;;;;15.68;58.56;100382.69;2097512;28;20037;-53
2022/03/15 05:11:08;;;;;;;;;;;;;;;15.67;58.69;100383.66;2096476;28;20354;-51
2022/03/15 05:12:12;;;;;;;;;;;;;;;15.67;58.61;100386.34;2098779;28;19936;-53
2022/03/15 05:13:14;;;;;;;;;;;;;;;15.66;58.59;100387.31;2097515;28;19931;-52
2022/03/15 05:14:15;;;;;;;;;;;;;;;15.67;58.68;100382.81;2093611;28;20068;-56
2022/03/15 05:15:16;;;;;;;;;;;;;;;15.65;58.68;100389.13;2099769;28;19935;-52
2022/03/15 05:16:19;;;;;;;;;;;;;;;15.65;58.60;100386.47;2098776;28;19946;-54
2022/03/15 05:17:20;;;;;;;;;;;;;;;15.65;58.49;100382.94;2093457;28;20109;-56